createdAt,value
2018-08-12T00:00:59.741Z,98.20
2018-08-12T00:03:28.207Z,98.20
2018-08-12T00:05:56.728Z,98.10
2018-08-12T00:08:25.221Z,97.90
2018-08-12T00:10:53.721Z,98.10
2018-08-12T00:13:22.288Z,98.00
2018-08-12T00:15:50.856Z,97.90
2018-08-12T00:18:19.349Z,97.20
2018-08-12T00:20:48.082Z,97.40
2018-08-12T00:23:16.654Z,97.40
2018-08-12T00:25:45.133Z,97.80
2018-08-12T00:28:14.145Z,98.30
2018-08-12T00:30:42.715Z,98.30
2018-08-12T00:33:11.214Z,98.50
2018-08-12T00:35:39.729Z,98.20
2018-08-12T00:38:08.347Z,98.10
2018-08-12T00:40:36.880Z,98.20
2018-08-12T00:43:05.589Z,97.90
2018-08-12T00:45:34.092Z,97.90
2018-08-12T00:48:02.946Z,98.40
2018-08-12T00:50:31.661Z,98.70
2018-08-12T00:53:00.276Z,98.20
2018-08-12T00:55:28.978Z,98.00
2018-08-12T00:57:57.642Z,97.70
2018-08-12T01:00:26.298Z,97.70
2018-08-12T01:02:55.818Z,97.70
2018-08-12T01:05:24.688Z,97.40
2018-08-12T01:07:53.486Z,97.70
2018-08-12T01:10:22.565Z,97.30
2018-08-12T01:12:51.393Z,96.70
2018-08-12T01:15:22.476Z,96.70
2018-08-12T01:17:51.375Z,96.50
2018-08-12T01:20:24.849Z,96.80
2018-08-12T01:22:53.435Z,96.30
2018-08-12T01:25:22.661Z,95.90
2018-08-12T01:27:51.801Z,95.70
2018-08-12T01:30:22.226Z,95.20
2018-08-12T01:32:50.989Z,94.50
2018-08-12T01:35:19.920Z,94.10
2018-08-12T01:37:49.287Z,94.00
2018-08-12T01:40:18.746Z,93.60
2018-08-12T01:42:47.857Z,94.20
2018-08-12T01:45:18.163Z,94.80
2018-08-12T01:47:46.785Z,95.10
2018-08-12T01:50:16.785Z,95.30
2018-08-12T01:52:45.678Z,95.70
2018-08-12T01:55:14.585Z,96.10
2018-08-12T01:57:43.161Z,96.30
2018-08-12T02:00:15.233Z,96.40
2018-08-12T02:02:44.397Z,96.70
2018-08-12T02:05:13.261Z,96.90
2018-08-12T02:07:41.945Z,96.60
2018-08-12T02:10:10.962Z,96.70
2018-08-12T02:12:40.022Z,97.20
2018-08-12T02:15:09.959Z,97.20
2018-08-12T02:17:38.741Z,97.50
2018-08-12T02:20:08.141Z,97.90
2018-08-12T02:22:37.170Z,98.00
2018-08-12T02:25:06.277Z,97.50
2018-08-12T02:27:34.823Z,97.40
2018-08-12T02:30:03.815Z,97.20
2018-08-12T02:32:32.346Z,97.30
2018-08-12T02:35:00.826Z,97.40
2018-08-12T02:37:29.637Z,97.20
2018-08-12T02:39:58.306Z,96.60
2018-08-12T02:42:26.877Z,96.50
2018-08-12T02:44:55.765Z,96.20
2018-08-12T02:47:24.365Z,96.00
2018-08-12T02:49:52.973Z,95.60
2018-08-12T02:52:21.545Z,95.40
2018-08-12T02:54:50.273Z,95.10
2018-08-12T02:57:18.790Z,94.50
2018-08-12T02:59:47.676Z,94.10
2018-08-12T03:02:16.402Z,94.50
2018-08-12T03:04:44.973Z,94.30
2018-08-12T03:07:13.874Z,94.20
2018-08-12T03:09:42.406Z,94.80
2018-08-12T03:12:10.961Z,95.40
2018-08-12T03:14:39.613Z,95.90
2018-08-12T03:17:08.350Z,96.40
2018-08-12T03:19:36.960Z,96.20
2018-08-12T03:24:42.845Z,96.50
2018-08-12T03:27:11.309Z,96.60
2018-08-12T03:29:39.809Z,96.20
2018-08-12T03:32:08.306Z,96.60
2018-08-12T03:34:36.794Z,96.80
2018-08-12T03:37:05.452Z,96.80
2018-08-12T03:39:33.968Z,96.70
2018-08-12T03:42:02.480Z,97.10
2018-08-12T03:44:30.973Z,97.40
2018-08-12T03:46:59.532Z,97.70
2018-08-12T03:49:28.021Z,97.70
2018-08-12T03:51:56.524Z,97.90
2018-08-12T03:54:25.028Z,98.30
2018-08-12T03:56:53.516Z,98.90
2018-08-12T03:59:22.026Z,99.00
2018-08-12T04:01:50.833Z,99.30
2018-08-12T04:04:19.316Z,99.80
2018-08-12T04:06:47.818Z,99.90
2018-08-12T04:09:16.343Z,99.90
2018-08-12T04:11:44.829Z,99.90
2018-08-12T04:14:13.402Z,99.90
2018-08-12T04:16:46.984Z,99.90
2018-08-12T04:19:15.512Z,99.90
2018-08-12T04:21:44.025Z,99.90
2018-08-12T04:24:12.491Z,99.90
2018-08-12T04:26:40.983Z,99.90
2018-08-12T04:29:09.444Z,99.90
2018-08-12T04:31:37.925Z,99.90
2018-08-12T04:34:06.446Z,99.90
2018-08-12T04:36:35.054Z,99.90
2018-08-12T04:39:04.053Z,99.90
2018-08-12T04:41:32.565Z,99.90
2018-08-12T04:44:01.080Z,99.90
2018-08-12T04:46:29.553Z,99.90
2018-08-12T04:48:58.070Z,99.90
2018-08-12T04:51:26.921Z,99.90
2018-08-12T04:53:55.455Z,99.90
2018-08-12T04:56:23.937Z,99.90
2018-08-12T04:58:52.413Z,99.90
2018-08-12T05:01:21.021Z,99.90
2018-08-12T05:03:49.649Z,99.90
2018-08-12T05:06:18.149Z,99.90
2018-08-12T05:08:46.616Z,99.90
2018-08-12T05:11:15.129Z,99.90
2018-08-12T05:13:43.628Z,99.90
2018-08-12T05:16:12.086Z,99.90
2018-08-12T05:18:40.585Z,98.40
2018-08-12T05:21:09.017Z,96.60
2018-08-12T05:23:37.493Z,96.40
2018-08-12T05:26:06.089Z,95.60
2018-08-12T05:28:34.589Z,94.70
2018-08-12T05:31:03.068Z,93.90
2018-08-12T05:33:31.637Z,93.50
2018-08-12T05:36:00.118Z,92.90
2018-08-12T05:38:28.577Z,94.10
2018-08-12T05:40:57.073Z,95.40
2018-08-12T05:43:25.632Z,96.10
2018-08-12T05:45:54.093Z,95.20
2018-08-12T05:48:22.628Z,95.50
2018-08-12T05:50:51.101Z,95.60
2018-08-12T05:53:19.569Z,95.00
2018-08-12T05:55:48.207Z,94.70
2018-08-12T05:58:16.704Z,94.30
2018-08-12T06:00:45.188Z,93.50
2018-08-12T06:03:13.685Z,93.30
2018-08-12T06:05:42.205Z,93.70
2018-08-12T06:08:10.661Z,93.10
2018-08-12T06:10:39.181Z,92.90
2018-08-12T06:13:07.717Z,92.40
2018-08-12T06:15:36.280Z,92.00
2018-08-12T06:18:04.869Z,92.00
2018-08-12T06:20:33.373Z,90.20
2018-08-12T06:23:01.862Z,90.20
2018-08-12T06:25:30.397Z,90.80
2018-08-12T06:27:58.908Z,90.80
2018-08-12T06:30:27.413Z,91.20
2018-08-12T06:32:55.897Z,89.60
2018-08-12T06:35:24.369Z,89.20
2018-08-12T06:37:52.881Z,89.60
2018-08-12T06:40:24.517Z,89.20
2018-08-12T06:42:52.976Z,88.00
2018-08-12T06:45:21.464Z,88.80
2018-08-12T06:47:49.974Z,87.70
2018-08-12T06:50:18.484Z,88.40
2018-08-12T06:52:46.965Z,88.30
2018-08-12T06:55:15.576Z,86.80
2018-08-12T06:57:44.481Z,86.10
2018-08-12T07:00:15.821Z,85.70
2018-08-12T07:02:44.406Z,84.60
2018-08-12T07:05:13.021Z,83.60
2018-08-12T07:07:41.497Z,84.00
2018-08-12T07:10:12.593Z,84.30
2018-08-12T07:12:41.639Z,84.30
2018-08-12T07:15:12.681Z,82.80
2018-08-12T07:17:42.137Z,84.40
2018-08-12T07:20:11.485Z,85.10
2018-08-12T07:22:40.281Z,84.30
2018-08-12T07:25:10.437Z,82.90
2018-08-12T07:27:39.877Z,83.50
2018-08-12T07:30:12.982Z,83.80
2018-08-12T07:32:41.512Z,83.10
2018-08-12T07:35:10.677Z,82.70
2018-08-12T07:37:39.458Z,80.80
2018-08-12T07:40:11.342Z,81.50
2018-08-12T07:42:39.853Z,81.60
2018-08-12T07:45:10.537Z,81.40
2018-08-12T07:47:39.013Z,81.30
2018-08-12T07:50:08.301Z,81.00
2018-08-12T07:52:36.916Z,80.50
2018-08-12T07:55:06.537Z,79.70
2018-08-12T07:57:35.154Z,79.80
2018-08-12T08:00:04.259Z,78.50
2018-08-12T08:02:32.724Z,78.10
2018-08-12T08:05:01.324Z,76.30
2018-08-12T08:07:29.905Z,75.60
2018-08-12T08:09:58.405Z,74.90
2018-08-12T08:12:26.880Z,74.10
2018-08-12T08:14:55.410Z,73.50
2018-08-12T08:17:23.970Z,74.20
2018-08-12T08:19:52.550Z,72.70
2018-08-12T08:22:21.029Z,71.10
2018-08-12T08:24:49.525Z,70.30
2018-08-12T08:27:18.013Z,68.90
2018-08-12T08:29:46.554Z,68.90
2018-08-12T08:32:15.049Z,70.50
2018-08-12T08:34:43.509Z,71.50
2018-08-12T08:37:12.070Z,71.40
2018-08-12T08:39:40.553Z,72.60
2018-08-12T08:42:09.069Z,73.50
2018-08-12T08:44:37.585Z,74.30
2018-08-12T08:47:06.065Z,75.60
2018-08-12T08:49:34.565Z,76.30
2018-08-12T08:52:03.197Z,75.80
2018-08-12T08:54:31.684Z,75.80
2018-08-12T08:57:00.189Z,75.40
2018-08-12T08:59:28.713Z,74.60
2018-08-12T09:01:57.929Z,74.70
2018-08-12T09:04:26.478Z,74.20
2018-08-12T09:06:55.103Z,73.50
2018-08-12T09:09:23.597Z,73.50
2018-08-12T09:11:52.102Z,73.50
2018-08-12T09:14:20.621Z,72.20
2018-08-12T09:16:49.105Z,72.00
2018-08-12T09:19:17.629Z,71.60
2018-08-12T09:21:46.605Z,70.60
2018-08-12T09:24:15.083Z,71.20
2018-08-12T09:26:43.561Z,69.60
2018-08-12T09:29:12.109Z,68.80
2018-08-12T09:31:40.661Z,68.00
2018-08-12T09:34:09.243Z,68.40
2018-08-12T09:36:37.787Z,67.20
2018-08-12T09:39:08.794Z,66.00
2018-08-12T09:41:37.277Z,64.30
2018-08-12T09:44:05.894Z,63.00
2018-08-12T09:46:34.481Z,60.80
2018-08-12T09:49:03.033Z,61.70
2018-08-12T09:51:32.138Z,62.00
2018-08-12T09:54:01.109Z,63.10
2018-08-12T09:56:29.728Z,63.50
2018-08-12T09:58:58.298Z,62.80
2018-08-12T10:01:26.766Z,60.70
2018-08-12T10:03:55.240Z,58.40
2018-08-12T10:06:23.821Z,57.40
2018-08-12T10:08:52.366Z,57.50
2018-08-12T10:11:20.865Z,57.10
2018-08-12T10:13:49.412Z,56.60
2018-08-12T10:16:18.386Z,54.90
2018-08-12T10:18:46.933Z,55.00
2018-08-12T10:21:15.539Z,54.80
2018-08-12T10:23:44.101Z,55.20
2018-08-12T10:26:12.612Z,54.80
2018-08-12T10:28:41.117Z,53.80
2018-08-12T10:31:09.568Z,53.60
2018-08-12T10:33:38.121Z,54.60
2018-08-12T10:36:06.649Z,55.60
2018-08-12T10:38:35.111Z,54.40
2018-08-12T10:41:03.657Z,54.00
2018-08-12T10:43:32.265Z,54.80
2018-08-12T10:46:00.789Z,53.70
2018-08-12T10:48:29.289Z,53.90
2018-08-12T10:50:57.894Z,53.60
2018-08-12T10:53:26.359Z,53.20
2018-08-12T10:55:54.917Z,53.80
2018-08-12T10:58:23.460Z,54.50
2018-08-12T11:00:52.060Z,54.60
2018-08-12T11:03:20.629Z,54.00
2018-08-12T11:05:50.618Z,53.40
2018-08-12T11:08:19.173Z,52.60
2018-08-12T11:10:47.707Z,52.10
2018-08-12T11:13:16.290Z,51.60
2018-08-12T11:15:44.774Z,52.00
2018-08-12T11:18:14.290Z,52.90
2018-08-12T11:20:42.833Z,50.70
2018-08-12T11:23:11.305Z,50.90
2018-08-12T11:25:39.828Z,50.80
2018-08-12T11:28:08.412Z,51.00
2018-08-12T11:30:37.021Z,52.60
2018-08-12T11:33:05.637Z,52.30
2018-08-12T11:35:34.133Z,52.20
2018-08-12T11:38:02.740Z,52.40
2018-08-12T11:40:31.209Z,52.50
2018-08-12T11:42:59.768Z,53.20
2018-08-12T11:45:28.250Z,53.20
2018-08-12T11:47:56.765Z,52.80
2018-08-12T11:50:25.346Z,52.00
2018-08-12T11:52:53.902Z,52.20
2018-08-12T11:55:22.401Z,52.60
2018-08-12T11:57:50.945Z,52.90
2018-08-12T12:00:21.036Z,53.80
2018-08-12T12:02:50.767Z,52.50
2018-08-12T12:05:19.385Z,51.60
2018-08-12T12:07:47.896Z,52.40
2018-08-12T12:10:18.632Z,51.80
2018-08-12T12:12:48.305Z,52.00
2018-08-12T12:15:17.258Z,53.00
2018-08-12T12:17:46.007Z,54.10
2018-08-12T12:20:15.237Z,54.80
2018-08-12T12:22:44.453Z,54.80
2018-08-12T12:25:14.274Z,53.80
2018-08-12T12:27:42.893Z,53.80
2018-08-12T12:30:15.049Z,53.90
2018-08-12T12:32:44.277Z,52.80
2018-08-12T12:35:12.877Z,52.80
2018-08-12T12:37:41.669Z,53.00
2018-08-12T12:40:12.237Z,53.50
2018-08-12T12:42:40.761Z,53.00
2018-08-12T12:45:10.889Z,53.80
2018-08-12T12:47:39.844Z,54.60
2018-08-12T12:50:11.714Z,54.70
2018-08-12T12:52:40.301Z,54.30
2018-08-12T12:55:08.753Z,54.30
2018-08-12T12:57:37.205Z,54.40
2018-08-12T13:00:07.777Z,55.00
2018-08-12T13:02:36.317Z,54.80
2018-08-12T13:05:06.385Z,55.00
2018-08-12T13:07:34.925Z,54.90
2018-08-12T13:10:03.481Z,55.10
2018-08-12T13:12:31.972Z,55.90
2018-08-12T13:15:00.570Z,57.00
2018-08-12T13:17:29.074Z,56.30
2018-08-12T13:19:57.599Z,57.00
2018-08-12T13:22:26.185Z,59.70
2018-08-12T13:24:54.810Z,64.90
2018-08-12T13:27:23.329Z,67.00
2018-08-12T13:29:51.913Z,67.20
2018-08-12T13:32:20.487Z,68.10
2018-08-12T13:34:49.002Z,70.20
2018-08-12T13:37:17.593Z,72.90
2018-08-12T13:39:46.077Z,76.70
2018-08-12T13:42:14.605Z,80.30
2018-08-12T13:44:43.104Z,87.80
2018-08-12T13:47:11.625Z,92.40
2018-08-12T13:49:40.105Z,93.60
2018-08-12T13:52:08.616Z,96.40
2018-08-12T13:54:37.081Z,97.00
2018-08-12T13:57:05.637Z,95.90
2018-08-12T13:59:34.165Z,95.90
2018-08-12T14:02:02.662Z,96.00
2018-08-12T14:04:31.521Z,96.50
2018-08-12T14:07:00.047Z,96.90
2018-08-12T14:09:28.557Z,98.20
2018-08-12T14:11:57.022Z,99.20
2018-08-12T14:14:25.623Z,99.80
2018-08-12T14:16:54.121Z,99.90
2018-08-12T14:19:22.603Z,99.90
2018-08-12T14:21:51.117Z,99.90
2018-08-12T14:24:19.633Z,99.90
2018-08-12T14:26:48.091Z,99.90
2018-08-12T14:29:19.677Z,99.90
2018-08-12T14:31:48.302Z,99.90
2018-08-12T14:34:16.807Z,99.90
2018-08-12T14:36:45.332Z,99.90
2018-08-12T14:39:13.809Z,99.90
2018-08-12T14:41:42.344Z,99.90
2018-08-12T14:44:10.865Z,99.90
2018-08-12T14:46:39.357Z,99.90
2018-08-12T14:49:07.845Z,99.90
2018-08-12T14:51:36.389Z,99.90
2018-08-12T14:54:04.889Z,99.90
2018-08-12T14:56:33.412Z,99.90
2018-08-12T14:59:01.921Z,99.90
2018-08-12T15:01:30.417Z,99.90
2018-08-12T15:03:59.027Z,99.90
2018-08-12T15:06:27.597Z,99.90
2018-08-12T15:08:56.061Z,99.90
2018-08-12T15:11:24.534Z,99.90
2018-08-12T15:13:53.029Z,99.90
2018-08-12T15:16:21.529Z,99.90
2018-08-12T15:18:50.089Z,99.90
2018-08-12T15:21:18.653Z,99.90
2018-08-12T15:23:47.161Z,99.90
2018-08-12T15:26:15.697Z,99.90
2018-08-12T15:28:44.295Z,99.90
2018-08-12T15:31:12.701Z,99.90
2018-08-12T15:33:41.174Z,99.90
2018-08-12T15:36:09.826Z,99.90
2018-08-12T15:38:38.325Z,99.90
2018-08-12T15:41:06.869Z,99.90
2018-08-12T15:43:35.382Z,99.90
2018-08-12T15:46:03.957Z,99.90
2018-08-12T15:48:32.429Z,99.80
2018-08-12T15:51:00.995Z,91.70
2018-08-12T15:53:29.528Z,82.60
2018-08-12T15:55:57.985Z,78.80
2018-08-12T15:58:26.562Z,75.70
2018-08-12T16:00:55.049Z,74.50
2018-08-12T16:03:23.555Z,76.10
2018-08-12T16:05:52.150Z,76.90
2018-08-12T16:08:20.633Z,76.60
2018-08-12T16:10:49.186Z,79.00
2018-08-12T16:13:17.705Z,81.80
2018-08-12T16:15:46.197Z,84.10
2018-08-12T16:18:14.712Z,84.70
2018-08-12T16:20:43.225Z,83.90
2018-08-12T16:23:11.737Z,87.50
2018-08-12T16:25:40.194Z,90.40
2018-08-12T16:28:08.900Z,90.80
2018-08-12T16:30:37.417Z,91.40
2018-08-12T16:33:06.042Z,93.30
2018-08-12T16:35:34.582Z,94.80
2018-08-12T16:38:03.161Z,97.30
2018-08-12T16:40:31.642Z,99.20
2018-08-12T16:43:00.237Z,99.90
2018-08-12T16:45:28.709Z,99.90
2018-08-12T16:47:57.229Z,99.90
2018-08-12T16:50:25.893Z,99.90
2018-08-12T16:52:54.405Z,99.90
2018-08-12T16:55:23.461Z,99.90
2018-08-12T16:57:52.004Z,99.90
2018-08-12T17:00:21.884Z,99.90
2018-08-12T17:02:50.428Z,99.90
2018-08-12T17:05:22.197Z,99.90
2018-08-12T17:07:51.072Z,99.90
2018-08-12T17:10:20.332Z,99.90
2018-08-12T17:12:48.918Z,99.90
2018-08-12T17:15:18.877Z,99.90
2018-08-12T17:17:47.765Z,99.90
2018-08-12T17:20:17.559Z,99.90
2018-08-12T17:22:46.462Z,99.90
2018-08-12T17:25:15.089Z,99.90
2018-08-12T17:27:43.607Z,99.90
2018-08-12T17:30:13.675Z,99.90
2018-08-12T17:32:42.280Z,99.90
2018-08-12T17:35:11.074Z,99.90
2018-08-12T17:37:40.129Z,99.90
2018-08-12T17:40:10.901Z,99.90
2018-08-12T17:42:39.664Z,99.90
2018-08-12T17:45:09.922Z,99.90
2018-08-12T17:47:38.766Z,99.90
2018-08-12T17:50:08.686Z,99.90
2018-08-12T17:52:37.199Z,99.90
2018-08-12T17:55:06.434Z,99.90
2018-08-12T17:57:34.925Z,99.90
2018-08-12T18:00:03.541Z,99.90
2018-08-12T18:02:32.003Z,99.90
2018-08-12T18:05:00.527Z,99.90
2018-08-12T18:07:29.001Z,99.90
2018-08-12T18:09:57.644Z,99.90
2018-08-12T18:12:26.226Z,99.90
2018-08-12T18:14:54.795Z,99.90
2018-08-12T18:17:24.305Z,99.90
2018-08-12T18:19:52.857Z,99.90
2018-08-12T18:22:21.354Z,99.90
2018-08-12T18:24:50.047Z,99.90
2018-08-12T18:27:18.558Z,99.90
2018-08-12T18:29:47.166Z,99.90
2018-08-12T18:32:15.741Z,99.90
2018-08-12T18:34:45.054Z,99.90
2018-08-12T18:37:13.665Z,99.90
2018-08-12T18:39:42.189Z,99.90
2018-08-12T18:42:10.803Z,99.90
2018-08-12T18:44:39.430Z,99.90
2018-08-12T18:47:08.026Z,99.90
2018-08-12T18:49:36.662Z,99.90
2018-08-12T18:52:05.206Z,99.90
2018-08-12T18:54:33.722Z,99.90
2018-08-12T18:57:02.468Z,99.90
2018-08-12T18:59:31.001Z,99.90
2018-08-12T19:01:59.587Z,99.90
2018-08-12T19:04:28.157Z,99.90
2018-08-12T19:06:56.733Z,99.90
2018-08-12T19:09:25.350Z,99.90
2018-08-12T19:11:53.874Z,99.90
2018-08-12T19:14:22.479Z,99.90
2018-08-12T19:16:51.006Z,99.90
2018-08-12T19:19:19.803Z,99.90
2018-08-12T19:21:48.600Z,99.90
2018-08-12T19:24:17.310Z,99.90
2018-08-12T19:26:46.090Z,99.90
2018-08-12T19:29:15.755Z,99.90
2018-08-12T19:31:44.436Z,99.90
2018-08-12T19:34:13.597Z,99.90
2018-08-12T19:36:42.408Z,99.90
2018-08-12T19:39:12.241Z,99.90
2018-08-12T19:41:40.906Z,99.90
2018-08-12T19:44:09.746Z,99.90
2018-08-12T19:46:38.768Z,99.90
2018-08-12T19:49:07.782Z,99.90
2018-08-12T19:54:14.974Z,99.90
2018-08-12T19:56:43.486Z,99.90
2018-08-12T19:59:12.021Z,99.90
2018-08-12T20:01:40.546Z,99.90
2018-08-12T20:04:09.075Z,99.90
2018-08-12T20:06:37.543Z,99.90
2018-08-12T20:09:09.333Z,99.90
2018-08-12T20:11:37.814Z,99.90
2018-08-12T20:14:06.542Z,99.90
2018-08-12T20:16:35.234Z,99.90
2018-08-12T20:19:03.762Z,99.90
2018-08-12T20:21:32.414Z,99.90
2018-08-12T20:24:01.034Z,99.90
2018-08-12T20:26:29.527Z,99.90
2018-08-12T20:28:57.989Z,99.90
2018-08-12T20:31:26.530Z,99.90
2018-08-12T20:33:55.018Z,99.90
2018-08-12T20:36:23.520Z,99.90
2018-08-12T20:38:52.071Z,99.90
2018-08-12T20:41:20.581Z,99.90
2018-08-12T20:43:49.042Z,99.90
2018-08-12T20:46:17.598Z,99.90
2018-08-12T20:48:46.063Z,99.90
2018-08-12T20:51:14.561Z,99.90
2018-08-12T20:53:43.085Z,99.90
2018-08-12T20:56:11.597Z,99.90
2018-08-12T20:58:40.061Z,99.90
2018-08-12T21:01:08.989Z,99.90
2018-08-12T21:03:37.537Z,99.90
2018-08-12T21:06:06.017Z,99.90
2018-08-12T21:08:34.556Z,99.90
2018-08-12T21:11:03.133Z,99.90
2018-08-12T21:13:31.654Z,99.90
2018-08-12T21:16:00.285Z,99.90
2018-08-12T21:18:28.761Z,99.90
2018-08-12T21:20:57.250Z,99.90
2018-08-12T21:23:25.803Z,99.90
2018-08-12T21:25:54.273Z,99.90
2018-08-12T21:28:22.749Z,99.90
2018-08-12T21:30:51.329Z,99.90
2018-08-12T21:33:20.344Z,99.90
2018-08-12T21:35:48.829Z,99.90
2018-08-12T21:38:17.351Z,99.90
2018-08-12T21:40:45.876Z,99.90
2018-08-12T21:43:14.330Z,99.90
2018-08-12T21:45:42.837Z,99.90
2018-08-12T21:48:11.385Z,99.90
2018-08-12T21:50:39.910Z,99.90
2018-08-12T21:53:08.489Z,99.90
2018-08-12T21:55:36.957Z,99.90
2018-08-12T21:58:06.042Z,99.90
2018-08-12T22:00:34.594Z,99.90
2018-08-12T22:03:03.105Z,99.90
2018-08-12T22:05:31.586Z,99.90
2018-08-12T22:08:04.277Z,99.90
2018-08-12T22:10:32.809Z,99.90
2018-08-12T22:13:01.308Z,99.90
2018-08-12T22:15:29.897Z,99.90
2018-08-12T22:17:58.370Z,99.90
2018-08-12T22:20:26.861Z,99.90
2018-08-12T22:22:55.537Z,99.90
2018-08-12T22:25:24.014Z,99.90
2018-08-12T22:27:52.556Z,99.90
2018-08-12T22:30:21.102Z,99.90
2018-08-12T22:32:49.601Z,99.90
2018-08-12T22:35:18.185Z,99.90
2018-08-12T22:37:46.707Z,99.90
2018-08-12T22:40:15.233Z,99.90
2018-08-12T22:42:43.709Z,99.90
2018-08-12T22:45:12.661Z,99.90
2018-08-12T22:47:41.825Z,99.90
2018-08-12T22:50:10.375Z,99.90
2018-08-12T22:52:39.121Z,99.90
2018-08-12T22:55:08.301Z,99.90
2018-08-12T22:57:37.292Z,99.90
2018-08-12T23:00:08.989Z,99.90
2018-08-12T23:02:37.537Z,99.90
2018-08-12T23:05:06.118Z,99.90
2018-08-12T23:07:34.617Z,99.90
2018-08-12T23:10:03.173Z,99.90
2018-08-12T23:12:31.677Z,99.90
2018-08-12T23:15:11.446Z,99.90
2018-08-12T23:17:39.957Z,99.90
2018-08-12T23:20:08.481Z,99.90
2018-08-12T23:22:37.011Z,99.90
2018-08-12T23:25:05.668Z,99.90
2018-08-12T23:27:34.181Z,99.90
2018-08-12T23:30:02.931Z,99.90
2018-08-12T23:32:31.462Z,99.90
2018-08-12T23:35:00.035Z,99.90
2018-08-12T23:37:28.555Z,99.90
2018-08-12T23:39:57.022Z,99.90
2018-08-12T23:42:25.501Z,99.90
2018-08-12T23:44:54.059Z,99.90
2018-08-12T23:47:22.561Z,99.90
2018-08-12T23:49:51.049Z,99.90
2018-08-12T23:52:19.614Z,99.90
2018-08-12T23:54:48.140Z,99.90
2018-08-12T23:57:16.678Z,99.90
2018-08-12T23:59:45.157Z,99.90
